Terminal Aerodrome Forecast
Issued by NWS Missoula, MT

Home | Current Version | Previous Version | Text Only | Print | Product List | Glossary On
Versions: 1 2 3 4 5 6 7 8 9 10 11 12 13
000
FTUS45 KMSO 181120
TAFBTM
TAF
KBTM 181120Z 1812/1912 VRB04KT 6SM FU SKC
     FM181800 30010G20KT P6SM SKC
     FM190200 32010KT P6SM SKC
     FM190400 VRB04KT 6SM FU SKC=

USA.gov is the U.S. government's official web portal to all federal, state and local government web resources and services.